sensor_id;sensor_type;location;lat;lon;timestamp;temperature;humidity
2849;DHT22;59355;52.416;13.412;2022-08-16T00:01:03;19.40;99.90
2849;DHT22;59355;52.416;13.412;2022-08-16T00:03:49;19.50;99.90
2849;DHT22;59355;52.416;13.412;2022-08-16T00:06:35;19.50;99.90
2849;DHT22;59355;52.416;13.412;2022-08-16T00:09:22;19.50;99.90
2849;DHT22;59355;52.416;13.412;2022-08-16T00:12:08;19.50;99.90
2849;DHT22;59355;52.416;13.412;2022-08-16T00:14:55;19.40;99.90
2849;DHT22;59355;52.416;13.412;2022-08-16T00:17:42;19.40;99.90
2849;DHT22;59355;52.416;13.412;2022-08-16T00:20:28;19.40;99.90
2849;DHT22;59355;52.416;13.412;2022-08-16T00:23:15;19.40;99.90
2849;DHT22;59355;52.416;13.412;2022-08-16T00:26:01;19.30;99.90
2849;DHT22;59355;52.416;13.412;2022-08-16T00:28:48;19.30;99.90
2849;DHT22;59355;52.416;13.412;2022-08-16T00:31:34;19.20;99.90
2849;DHT22;59355;52.416;13.412;2022-08-16T00:34:21;19.20;99.90
2849;DHT22;59355;52.416;13.412;2022-08-16T00:39:54;19.10;99.90
2849;DHT22;59355;52.416;13.412;2022-08-16T00:42:40;19.10;99.90
2849;DHT22;59355;52.416;13.412;2022-08-16T00:45:36;19.10;99.90
2849;DHT22;59355;52.416;13.412;2022-08-16T00:53:58;19.10;99.90
2849;DHT22;59355;52.416;13.412;2022-08-16T00:56:46;19.10;99.90
2849;DHT22;59355;52.416;13.412;2022-08-16T00:59:36;19.00;99.90
2849;DHT22;59355;52.416;13.412;2022-08-16T01:02:24;19.00;99.90
2849;DHT22;59355;52.416;13.412;2022-08-16T01:07:57;19.00;99.90
2849;DHT22;59355;52.416;13.412;2022-08-16T01:10:43;19.00;99.90
2849;DHT22;59355;52.416;13.412;2022-08-16T01:16:21;18.90;99.90
2849;DHT22;59355;52.416;13.412;2022-08-16T01:19:19;18.90;99.90
2849;DHT22;59355;52.416;13.412;2022-08-16T01:22:27;18.80;99.90
2849;DHT22;59355;52.416;13.412;2022-08-16T01:30:55;18.70;99.90
2849;DHT22;59355;52.416;13.412;2022-08-16T01:33:42;18.80;99.90
2849;DHT22;59355;52.416;13.412;2022-08-16T01:39:16;18.70;99.90
2849;DHT22;59355;52.416;13.412;2022-08-16T01:42:04;18.60;99.90
2849;DHT22;59355;52.416;13.412;2022-08-16T01:44:50;18.70;99.90
2849;DHT22;59355;52.416;13.412;2022-08-16T01:47:37;18.70;99.90
2849;DHT22;59355;52.416;13.412;2022-08-16T01:50:24;18.60;99.90
2849;DHT22;59355;52.416;13.412;2022-08-16T01:53:11;18.60;99.90
2849;DHT22;59355;52.416;13.412;2022-08-16T01:55:57;18.60;99.90
2849;DHT22;59355;52.416;13.412;2022-08-16T01:58:44;18.50;99.90
2849;DHT22;59355;52.416;13.412;2022-08-16T02:01:31;18.50;99.90
2849;DHT22;59355;52.416;13.412;2022-08-16T02:04:19;18.50;99.90
2849;DHT22;59355;52.416;13.412;2022-08-16T02:07:05;18.40;99.90
2849;DHT22;59355;52.416;13.412;2022-08-16T02:09:54;18.40;99.90
2849;DHT22;59355;52.416;13.412;2022-08-16T02:12:40;18.30;99.90
2849;DHT22;59355;52.416;13.412;2022-08-16T02:15:28;18.20;99.90
2849;DHT22;59355;52.416;13.412;2022-08-16T02:18:16;18.20;99.90
2849;DHT22;59355;52.416;13.412;2022-08-16T02:21:03;18.10;99.90
2849;DHT22;59355;52.416;13.412;2022-08-16T02:23:50;18.10;99.90
2849;DHT22;59355;52.416;13.412;2022-08-16T02:26:36;18.10;99.90
2849;DHT22;59355;52.416;13.412;2022-08-16T02:29:22;18.10;99.90
2849;DHT22;59355;52.416;13.412;2022-08-16T02:32:15;18.10;99.90
2849;DHT22;59355;52.416;13.412;2022-08-16T02:35:02;18.10;99.90
2849;DHT22;59355;52.416;13.412;2022-08-16T02:37:48;18.10;99.90
2849;DHT22;59355;52.416;13.412;2022-08-16T02:40:35;18.10;99.90
2849;DHT22;59355;52.416;13.412;2022-08-16T02:43:23;18.10;99.90
2849;DHT22;59355;52.416;13.412;2022-08-16T02:46:09;18.10;99.90
2849;DHT22;59355;52.416;13.412;2022-08-16T02:48:56;18.10;99.90
2849;DHT22;59355;52.416;13.412;2022-08-16T02:51:42;18.10;99.90
2849;DHT22;59355;52.416;13.412;2022-08-16T02:54:28;18.00;99.90
2849;DHT22;59355;52.416;13.412;2022-08-16T02:57:15;18.00;99.90
2849;DHT22;59355;52.416;13.412;2022-08-16T03:00:04;18.00;99.90
2849;DHT22;59355;52.416;13.412;2022-08-16T03:02:54;18.00;99.90
2849;DHT22;59355;52.416;13.412;2022-08-16T03:05:40;18.00;99.90
2849;DHT22;59355;52.416;13.412;2022-08-16T03:08:27;17.90;99.90
2849;DHT22;59355;52.416;13.412;2022-08-16T03:11:13;18.00;99.90
2849;DHT22;59355;52.416;13.412;2022-08-16T03:14:02;18.00;99.90
2849;DHT22;59355;52.416;13.412;2022-08-16T03:16:48;18.00;99.90
2849;DHT22;59355;52.416;13.412;2022-08-16T03:19:35;18.00;99.90
2849;DHT22;59355;52.416;13.412;2022-08-16T03:22:22;17.90;99.90
2849;DHT22;59355;52.416;13.412;2022-08-16T03:25:11;17.90;99.90
2849;DHT22;59355;52.416;13.412;2022-08-16T03:27:58;17.90;99.90
2849;DHT22;59355;52.416;13.412;2022-08-16T03:30:44;17.90;99.90
2849;DHT22;59355;52.416;13.412;2022-08-16T03:33:30;17.80;99.90
2849;DHT22;59355;52.416;13.412;2022-08-16T03:36:16;17.80;99.90
2849;DHT22;59355;52.416;13.412;2022-08-16T03:39:03;17.80;99.90
2849;DHT22;59355;52.416;13.412;2022-08-16T03:41:49;17.80;99.90
2849;DHT22;59355;52.416;13.412;2022-08-16T03:44:36;17.70;99.90
2849;DHT22;59355;52.416;13.412;2022-08-16T03:47:22;17.60;99.90
2849;DHT22;59355;52.416;13.412;2022-08-16T03:50:09;17.60;99.90
2849;DHT22;59355;52.416;13.412;2022-08-16T03:52:55;17.60;99.90
2849;DHT22;59355;52.416;13.412;2022-08-16T03:55:42;17.70;99.90
2849;DHT22;59355;52.416;13.412;2022-08-16T03:58:28;17.70;99.90
2849;DHT22;59355;52.416;13.412;2022-08-16T04:01:14;17.70;99.90
2849;DHT22;59355;52.416;13.412;2022-08-16T04:04:01;17.70;99.90
2849;DHT22;59355;52.416;13.412;2022-08-16T04:06:47;17.70;99.90
2849;DHT22;59355;52.416;13.412;2022-08-16T04:09:34;17.70;99.90
2849;DHT22;59355;52.416;13.412;2022-08-16T04:12:21;17.70;99.90
2849;DHT22;59355;52.416;13.412;2022-08-16T04:15:09;17.70;99.90
2849;DHT22;59355;52.416;13.412;2022-08-16T04:17:56;17.70;99.90
2849;DHT22;59355;52.416;13.412;2022-08-16T04:20:43;17.80;99.90
2849;DHT22;59355;52.416;13.412;2022-08-16T04:23:30;17.80;99.90
2849;DHT22;59355;52.416;13.412;2022-08-16T04:26:16;17.90;99.90
2849;DHT22;59355;52.416;13.412;2022-08-16T04:29:03;17.90;99.90
2849;DHT22;59355;52.416;13.412;2022-08-16T04:31:50;17.90;99.90
2849;DHT22;59355;52.416;13.412;2022-08-16T04:34:37;17.90;99.90
2849;DHT22;59355;52.416;13.412;2022-08-16T04:37:24;17.90;99.90
2849;DHT22;59355;52.416;13.412;2022-08-16T04:40:12;17.90;99.90
2849;DHT22;59355;52.416;13.412;2022-08-16T04:42:59;17.90;99.90
2849;DHT22;59355;52.416;13.412;2022-08-16T04:45:46;18.00;99.90
2849;DHT22;59355;52.416;13.412;2022-08-16T04:48:32;18.00;99.90
2849;DHT22;59355;52.416;13.412;2022-08-16T04:51:18;18.00;99.90
2849;DHT22;59355;52.416;13.412;2022-08-16T04:54:05;18.10;99.90
2849;DHT22;59355;52.416;13.412;2022-08-16T04:56:51;18.10;99.90
2849;DHT22;59355;52.416;13.412;2022-08-16T04:59:37;18.10;99.90
2849;DHT22;59355;52.416;13.412;2022-08-16T05:02:24;18.10;99.90
2849;DHT22;59355;52.416;13.412;2022-08-16T05:05:11;18.10;99.90
2849;DHT22;59355;52.416;13.412;2022-08-16T05:07:57;18.30;99.90
2849;DHT22;59355;52.416;13.412;2022-08-16T05:10:43;18.20;99.90
2849;DHT22;59355;52.416;13.412;2022-08-16T05:13:31;18.30;99.90
2849;DHT22;59355;52.416;13.412;2022-08-16T05:16:23;17.70;99.90
2849;DHT22;59355;52.416;13.412;2022-08-16T05:19:10;18.60;99.90
2849;DHT22;59355;52.416;13.412;2022-08-16T05:21:56;17.70;99.90
2849;DHT22;59355;52.416;13.412;2022-08-16T05:24:42;18.30;99.90
2849;DHT22;59355;52.416;13.412;2022-08-16T05:27:29;18.90;99.90
2849;DHT22;59355;52.416;13.412;2022-08-16T05:30:15;18.40;99.90
2849;DHT22;59355;52.416;13.412;2022-08-16T05:33:02;18.40;99.90
2849;DHT22;59355;52.416;13.412;2022-08-16T05:35:48;18.60;99.90
2849;DHT22;59355;52.416;13.412;2022-08-16T05:44:14;18.60;99.90
2849;DHT22;59355;52.416;13.412;2022-08-16T05:47:01;18.90;99.90
2849;DHT22;59355;52.416;13.412;2022-08-16T05:49:47;18.80;99.90
2849;DHT22;59355;52.416;13.412;2022-08-16T05:52:33;18.90;99.90
2849;DHT22;59355;52.416;13.412;2022-08-16T05:55:20;18.90;99.90
2849;DHT22;59355;52.416;13.412;2022-08-16T05:58:06;19.00;99.90
2849;DHT22;59355;52.416;13.412;2022-08-16T06:00:54;19.10;99.90
2849;DHT22;59355;52.416;13.412;2022-08-16T06:03:41;19.10;99.90
2849;DHT22;59355;52.416;13.412;2022-08-16T06:06:27;19.20;99.90
2849;DHT22;59355;52.416;13.412;2022-08-16T06:09:14;19.30;99.90
2849;DHT22;59355;52.416;13.412;2022-08-16T06:12:02;19.30;99.90
2849;DHT22;59355;52.416;13.412;2022-08-16T06:14:48;19.40;99.90
2849;DHT22;59355;52.416;13.412;2022-08-16T06:17:34;19.50;99.90
2849;DHT22;59355;52.416;13.412;2022-08-16T06:20:24;19.60;99.90
2849;DHT22;59355;52.416;13.412;2022-08-16T06:23:10;19.70;99.90
2849;DHT22;59355;52.416;13.412;2022-08-16T06:25:57;19.70;99.90
2849;DHT22;59355;52.416;13.412;2022-08-16T06:28:43;19.80;99.90
2849;DHT22;59355;52.416;13.412;2022-08-16T06:31:29;19.80;99.90
2849;DHT22;59355;52.416;13.412;2022-08-16T06:34:16;19.90;99.90
2849;DHT22;59355;52.416;13.412;2022-08-16T06:37:03;19.90;99.90
2849;DHT22;59355;52.416;13.412;2022-08-16T06:39:49;20.00;99.90
2849;DHT22;59355;52.416;13.412;2022-08-16T06:42:35;20.00;99.90
2849;DHT22;59355;52.416;13.412;2022-08-16T06:45:22;20.10;99.90
2849;DHT22;59355;52.416;13.412;2022-08-16T06:48:08;20.20;99.90
2849;DHT22;59355;52.416;13.412;2022-08-16T06:50:55;20.30;99.90
2849;DHT22;59355;52.416;13.412;2022-08-16T06:53:43;20.30;99.90
2849;DHT22;59355;52.416;13.412;2022-08-16T06:56:29;20.30;99.90
2849;DHT22;59355;52.416;13.412;2022-08-16T06:59:16;20.40;99.90
2849;DHT22;59355;52.416;13.412;2022-08-16T07:02:02;20.50;99.90
2849;DHT22;59355;52.416;13.412;2022-08-16T07:04:49;20.50;99.90
2849;DHT22;59355;52.416;13.412;2022-08-16T07:07:36;20.60;99.90
2849;DHT22;59355;52.416;13.412;2022-08-16T07:10:23;20.70;99.90
2849;DHT22;59355;52.416;13.412;2022-08-16T07:13:10;20.80;99.90
2849;DHT22;59355;52.416;13.412;2022-08-16T07:15:58;20.80;99.90
2849;DHT22;59355;52.416;13.412;2022-08-16T07:18:44;20.90;99.90
2849;DHT22;59355;52.416;13.412;2022-08-16T07:21:31;21.00;99.90
2849;DHT22;59355;52.416;13.412;2022-08-16T07:24:17;21.00;99.90
2849;DHT22;59355;52.416;13.412;2022-08-16T07:27:03;21.10;99.90
2849;DHT22;59355;52.416;13.412;2022-08-16T07:29:50;21.20;99.90
2849;DHT22;59355;52.416;13.412;2022-08-16T07:32:36;21.20;99.90
2849;DHT22;59355;52.416;13.412;2022-08-16T07:35:24;21.30;99.90
2849;DHT22;59355;52.416;13.412;2022-08-16T07:38:10;21.40;99.90
2849;DHT22;59355;52.416;13.412;2022-08-16T07:40:57;21.50;99.90
2849;DHT22;59355;52.416;13.412;2022-08-16T07:43:44;21.60;99.90
2849;DHT22;59355;52.416;13.412;2022-08-16T07:46:31;21.70;99.90
2849;DHT22;59355;52.416;13.412;2022-08-16T07:49:18;21.70;99.90
2849;DHT22;59355;52.416;13.412;2022-08-16T07:52:04;21.90;99.90
2849;DHT22;59355;52.416;13.412;2022-08-16T07:54:50;22.00;99.90
2849;DHT22;59355;52.416;13.412;2022-08-16T07:57:37;22.00;99.90
2849;DHT22;59355;52.416;13.412;2022-08-16T08:00:23;22.00;99.90
2849;DHT22;59355;52.416;13.412;2022-08-16T08:03:10;22.10;99.90
2849;DHT22;59355;52.416;13.412;2022-08-16T08:05:57;22.10;99.90
2849;DHT22;59355;52.416;13.412;2022-08-16T08:08:43;22.20;99.90
2849;DHT22;59355;52.416;13.412;2022-08-16T08:11:29;22.30;99.90
2849;DHT22;59355;52.416;13.412;2022-08-16T08:14:16;22.30;99.90
2849;DHT22;59355;52.416;13.412;2022-08-16T08:17:03;22.40;99.90
2849;DHT22;59355;52.416;13.412;2022-08-16T08:19:52;22.50;99.90
2849;DHT22;59355;52.416;13.412;2022-08-16T08:22:38;22.60;99.90
2849;DHT22;59355;52.416;13.412;2022-08-16T08:25:25;22.60;99.90
2849;DHT22;59355;52.416;13.412;2022-08-16T08:28:11;22.70;99.90
2849;DHT22;59355;52.416;13.412;2022-08-16T08:30:59;22.80;99.90
2849;DHT22;59355;52.416;13.412;2022-08-16T08:33:45;22.90;99.90
2849;DHT22;59355;52.416;13.412;2022-08-16T08:36:33;23.00;99.90
2849;DHT22;59355;52.416;13.412;2022-08-16T08:39:22;23.10;99.90
2849;DHT22;59355;52.416;13.412;2022-08-16T08:42:08;23.10;99.90
2849;DHT22;59355;52.416;13.412;2022-08-16T08:44:55;23.20;99.90
2849;DHT22;59355;52.416;13.412;2022-08-16T08:47:42;23.30;99.90
2849;DHT22;59355;52.416;13.412;2022-08-16T08:50:31;23.30;99.90
2849;DHT22;59355;52.416;13.412;2022-08-16T08:53:17;23.40;99.90
2849;DHT22;59355;52.416;13.412;2022-08-16T08:56:04;23.50;99.90
2849;DHT22;59355;52.416;13.412;2022-08-16T08:58:54;23.60;99.90
2849;DHT22;59355;52.416;13.412;2022-08-16T09:01:41;23.70;99.90
2849;DHT22;59355;52.416;13.412;2022-08-16T09:04:28;23.70;99.90
2849;DHT22;59355;52.416;13.412;2022-08-16T09:07:15;23.80;99.90
2849;DHT22;59355;52.416;13.412;2022-08-16T09:10:03;23.90;99.90
2849;DHT22;59355;52.416;13.412;2022-08-16T09:12:50;23.70;99.90
2849;DHT22;59355;52.416;13.412;2022-08-16T09:15:36;23.40;99.90
2849;DHT22;59355;52.416;13.412;2022-08-16T09:18:23;24.30;99.90
2849;DHT22;59355;52.416;13.412;2022-08-16T09:21:11;24.40;99.90
2849;DHT22;59355;52.416;13.412;2022-08-16T09:23:57;24.50;99.90
2849;DHT22;59355;52.416;13.412;2022-08-16T09:26:43;24.60;99.90
2849;DHT22;59355;52.416;13.412;2022-08-16T09:29:30;24.70;99.90
2849;DHT22;59355;52.416;13.412;2022-08-16T09:32:16;24.70;99.90
2849;DHT22;59355;52.416;13.412;2022-08-16T09:35:05;24.80;99.90
2849;DHT22;59355;52.416;13.412;2022-08-16T09:37:51;24.80;99.90
2849;DHT22;59355;52.416;13.412;2022-08-16T09:40:42;24.90;99.90
2849;DHT22;59355;52.416;13.412;2022-08-16T09:46:16;25.20;99.90
2849;DHT22;59355;52.416;13.412;2022-08-16T09:49:02;25.20;99.90
2849;DHT22;59355;52.416;13.412;2022-08-16T09:51:50;25.30;99.90
2849;DHT22;59355;52.416;13.412;2022-08-16T09:54:38;25.30;99.90
2849;DHT22;59355;52.416;13.412;2022-08-16T09:57:25;25.50;99.90
2849;DHT22;59355;52.416;13.412;2022-08-16T10:00:12;25.60;99.90
2849;DHT22;59355;52.416;13.412;2022-08-16T10:02:58;25.80;99.90
2849;DHT22;59355;52.416;13.412;2022-08-16T10:05:45;25.90;99.90
2849;DHT22;59355;52.416;13.412;2022-08-16T10:08:32;25.90;99.90
2849;DHT22;59355;52.416;13.412;2022-08-16T10:11:18;25.90;99.90
2849;DHT22;59355;52.416;13.412;2022-08-16T10:14:31;26.00;99.90
2849;DHT22;59355;52.416;13.412;2022-08-16T10:17:17;26.10;99.90
2849;DHT22;59355;52.416;13.412;2022-08-16T10:20:04;26.20;99.90
2849;DHT22;59355;52.416;13.412;2022-08-16T10:22:51;26.20;99.90
2849;DHT22;59355;52.416;13.412;2022-08-16T20:47:32;21.80;99.90
2849;DHT22;59355;52.416;13.412;2022-08-16T20:50:18;21.80;99.90
2849;DHT22;59355;52.416;13.412;2022-08-16T20:53:05;21.80;99.90
2849;DHT22;59355;52.416;13.412;2022-08-16T20:55:52;21.70;99.90
2849;DHT22;59355;52.416;13.412;2022-08-16T20:58:38;21.70;99.90
2849;DHT22;59355;52.416;13.412;2022-08-16T21:01:25;21.60;99.90
2849;DHT22;59355;52.416;13.412;2022-08-16T21:04:11;21.60;99.90
2849;DHT22;59355;52.416;13.412;2022-08-16T21:06:57;21.60;99.90
2849;DHT22;59355;52.416;13.412;2022-08-16T21:09:44;21.60;99.90
2849;DHT22;59355;52.416;13.412;2022-08-16T21:12:30;21.50;99.90
2849;DHT22;59355;52.416;13.412;2022-08-16T21:15:18;21.50;99.90
2849;DHT22;59355;52.416;13.412;2022-08-16T21:18:04;21.40;99.90
2849;DHT22;59355;52.416;13.412;2022-08-16T21:20:51;21.30;99.90
2849;DHT22;59355;52.416;13.412;2022-08-16T21:23:38;21.40;99.90
2849;DHT22;59355;52.416;13.412;2022-08-16T21:26:24;21.10;99.90
2849;DHT22;59355;52.416;13.412;2022-08-16T21:29:11;21.00;99.90
2849;DHT22;59355;52.416;13.412;2022-08-16T21:32:07;20.70;99.90
2849;DHT22;59355;52.416;13.412;2022-08-16T21:34:54;21.00;99.90
2849;DHT22;59355;52.416;13.412;2022-08-16T21:37:41;21.30;99.90
2849;DHT22;59355;52.416;13.412;2022-08-16T21:40:30;21.20;99.90
2849;DHT22;59355;52.416;13.412;2022-08-16T21:43:19;21.30;99.90
2849;DHT22;59355;52.416;13.412;2022-08-16T21:46:07;21.20;99.90
2849;DHT22;59355;52.416;13.412;2022-08-16T21:48:53;21.20;99.90
2849;DHT22;59355;52.416;13.412;2022-08-16T21:51:39;21.10;99.90
2849;DHT22;59355;52.416;13.412;2022-08-16T21:54:26;21.10;99.90
2849;DHT22;59355;52.416;13.412;2022-08-16T21:57:12;21.10;99.90
2849;DHT22;59355;52.416;13.412;2022-08-16T21:59:58;21.10;99.90
2849;DHT22;59355;52.416;13.412;2022-08-16T22:02:44;21.00;99.90
2849;DHT22;59355;52.416;13.412;2022-08-16T22:05:33;20.90;99.90
2849;DHT22;59355;52.416;13.412;2022-08-16T22:08:19;20.90;99.90
2849;DHT22;59355;52.416;13.412;2022-08-16T22:11:06;20.90;99.90
2849;DHT22;59355;52.416;13.412;2022-08-16T22:13:53;20.80;99.90
2849;DHT22;59355;52.416;13.412;2022-08-16T22:16:40;20.80;99.90
2849;DHT22;59355;52.416;13.412;2022-08-16T22:19:26;20.80;99.90
2849;DHT22;59355;52.416;13.412;2022-08-16T22:22:13;20.80;99.90
2849;DHT22;59355;52.416;13.412;2022-08-16T22:24:59;20.70;99.90
2849;DHT22;59355;52.416;13.412;2022-08-16T22:27:46;20.70;99.90
2849;DHT22;59355;52.416;13.412;2022-08-16T22:30:32;20.60;99.90
2849;DHT22;59355;52.416;13.412;2022-08-16T22:33:20;20.60;99.90
2849;DHT22;59355;52.416;13.412;2022-08-16T22:36:07;20.60;99.90
2849;DHT22;59355;52.416;13.412;2022-08-16T22:38:59;20.60;99.90
2849;DHT22;59355;52.416;13.412;2022-08-16T22:41:46;20.50;99.90
2849;DHT22;59355;52.416;13.412;2022-08-16T22:44:35;20.60;99.90
2849;DHT22;59355;52.416;13.412;2022-08-16T22:47:21;20.60;99.90
2849;DHT22;59355;52.416;13.412;2022-08-16T22:50:08;20.50;99.90
2849;DHT22;59355;52.416;13.412;2022-08-16T22:52:55;20.50;99.90
2849;DHT22;59355;52.416;13.412;2022-08-16T22:55:41;20.50;99.90
2849;DHT22;59355;52.416;13.412;2022-08-16T22:58:28;20.50;99.90
2849;DHT22;59355;52.416;13.412;2022-08-16T23:01:16;20.50;99.90
2849;DHT22;59355;52.416;13.412;2022-08-16T23:04:02;20.50;99.90
2849;DHT22;59355;52.416;13.412;2022-08-16T23:06:49;20.40;99.90
2849;DHT22;59355;52.416;13.412;2022-08-16T23:09:36;20.30;99.90
2849;DHT22;59355;52.416;13.412;2022-08-16T23:12:22;20.30;99.90
2849;DHT22;59355;52.416;13.412;2022-08-16T23:15:09;20.20;99.90
2849;DHT22;59355;52.416;13.412;2022-08-16T23:17:56;20.20;99.90
2849;DHT22;59355;52.416;13.412;2022-08-16T23:20:43;20.10;99.90
2849;DHT22;59355;52.416;13.412;2022-08-16T23:23:29;20.10;99.90
2849;DHT22;59355;52.416;13.412;2022-08-16T23:26:17;20.10;99.90
2849;DHT22;59355;52.416;13.412;2022-08-16T23:29:04;20.10;99.90
2849;DHT22;59355;52.416;13.412;2022-08-16T23:31:56;20.10;99.90
2849;DHT22;59355;52.416;13.412;2022-08-16T23:34:43;20.10;99.90
2849;DHT22;59355;52.416;13.412;2022-08-16T23:37:29;20.00;99.90
2849;DHT22;59355;52.416;13.412;2022-08-16T23:40:16;20.00;99.90
2849;DHT22;59355;52.416;13.412;2022-08-16T23:43:08;19.90;99.90
2849;DHT22;59355;52.416;13.412;2022-08-16T23:45:58;19.90;99.90
2849;DHT22;59355;52.416;13.412;2022-08-16T23:48:46;19.80;99.90
2849;DHT22;59355;52.416;13.412;2022-08-16T23:51:32;19.90;99.90
2849;DHT22;59355;52.416;13.412;2022-08-16T23:54:18;19.90;99.90
2849;DHT22;59355;52.416;13.412;2022-08-16T23:57:05;19.80;99.90
2849;DHT22;59355;52.416;13.412;2022-08-16T23:59:52;19.80;99.90
